createdAt,value
2018-08-23T00:02:21.578Z,5.23
2018-08-23T00:04:51.843Z,5.20
2018-08-23T00:07:22.256Z,5.20
2018-08-23T00:09:53.171Z,5.50
2018-08-23T00:13:26.440Z,4.80
2018-08-23T00:15:56.883Z,5.40
2018-08-23T00:18:27.367Z,5.60
2018-08-23T00:20:57.206Z,5.33
2018-08-23T00:23:27.495Z,5.33
2018-08-23T00:25:57.819Z,6.20
2018-08-23T00:28:28.216Z,5.40
2018-08-23T00:30:58.636Z,6.10
2018-08-23T00:33:29.051Z,5.07
2018-08-23T00:35:59.708Z,5.77
2018-08-23T00:38:30.127Z,5.53
2018-08-23T00:41:00.503Z,5.30
2018-08-23T00:43:30.267Z,5.60
2018-08-23T00:46:04.749Z,5.37
2018-08-23T00:48:35.211Z,5.50
2018-08-23T00:51:06.811Z,5.77
2018-08-23T00:53:37.514Z,5.70
2018-08-23T00:56:17.075Z,5.70
2018-08-23T00:58:51.711Z,5.57
2018-08-23T01:01:21.362Z,5.70
2018-08-23T01:03:51.726Z,5.93
2018-08-23T01:06:24.723Z,6.00
2018-08-23T01:08:54.498Z,6.00
2018-08-23T01:11:24.770Z,5.80
2018-08-23T01:13:55.171Z,6.20
2018-08-23T01:16:25.634Z,5.93
2018-08-23T01:19:00.682Z,5.97
2018-08-23T01:21:33.380Z,5.80
2018-08-23T01:24:03.911Z,6.13
2018-08-23T01:26:35.373Z,6.20
2018-08-23T01:29:15.072Z,6.00
2018-08-23T01:31:45.283Z,5.67
2018-08-23T01:34:15.760Z,6.50
2018-08-23T01:36:46.267Z,5.70
2018-08-23T01:39:16.639Z,5.87
2018-08-23T01:41:47.429Z,6.20
2018-08-23T01:44:17.937Z,5.80
2018-08-23T01:46:48.376Z,5.87
2018-08-23T01:49:19.215Z,6.10
2018-08-23T01:51:49.517Z,6.80
2018-08-23T01:54:20.015Z,6.00
2018-08-23T01:56:50.602Z,5.90
2018-08-23T01:59:21.099Z,6.23
2018-08-23T02:01:51.422Z,6.60
2018-08-23T02:04:21.899Z,5.70
2018-08-23T02:06:52.431Z,6.00
2018-08-23T02:09:22.879Z,6.67
2018-08-23T02:11:53.360Z,6.27
2018-08-23T02:14:24.383Z,6.23
2018-08-23T02:16:54.827Z,5.53
2018-08-23T02:19:25.407Z,5.90
2018-08-23T02:21:55.799Z,6.27
2018-08-23T02:24:30.391Z,6.30
2018-08-23T02:27:00.709Z,6.43
2018-08-23T02:29:41.487Z,6.30
2018-08-23T02:32:11.775Z,5.93
2018-08-23T02:34:43.666Z,6.40
2018-08-23T02:37:15.051Z,6.40
2018-08-23T02:39:46.279Z,6.40
2018-08-23T02:42:18.669Z,6.50
2018-08-23T02:44:49.167Z,6.23
2018-08-23T02:47:19.512Z,6.20
2018-08-23T02:49:50.120Z,6.50
2018-08-23T02:52:20.695Z,5.83
2018-08-23T02:54:51.120Z,6.30
2018-08-23T02:57:21.605Z,6.50
2018-08-23T02:59:51.973Z,6.03
2018-08-23T03:02:22.537Z,5.90
2018-08-23T03:04:53.058Z,6.57
2018-08-23T03:07:23.164Z,6.43
2018-08-23T03:09:52.833Z,6.23
2018-08-23T03:12:23.592Z,6.43
2018-08-23T03:14:54.201Z,5.80
2018-08-23T03:17:28.537Z,6.13
2018-08-23T03:20:03.785Z,6.40
2018-08-23T03:22:34.909Z,6.60
2018-08-23T03:25:06.867Z,6.83
2018-08-23T03:27:37.389Z,6.13
2018-08-23T03:30:09.280Z,6.43
2018-08-23T03:32:39.607Z,6.23
2018-08-23T03:35:10.468Z,6.87
2018-08-23T03:37:40.946Z,6.63
2018-08-23T03:40:12.753Z,6.60
2018-08-23T03:42:42.660Z,5.93
2018-08-23T03:45:17.300Z,6.07
2018-08-23T03:47:55.220Z,6.87
2018-08-23T03:50:25.488Z,6.30
2018-08-23T03:52:56.049Z,6.47
2018-08-23T03:55:26.431Z,6.60
2018-08-23T03:58:03.485Z,6.50
2018-08-23T04:00:38.911Z,6.13
2018-08-23T04:03:19.898Z,6.20
2018-08-23T04:05:50.305Z,6.50
2018-08-23T04:08:20.830Z,6.07
2018-08-23T04:10:51.201Z,7.03
2018-08-23T04:13:21.681Z,6.50
2018-08-23T04:15:51.516Z,7.33
2018-08-23T04:18:21.821Z,6.33
2018-08-23T04:20:55.323Z,6.70
2018-08-23T04:23:25.777Z,6.27
2018-08-23T04:25:56.189Z,6.43
2018-08-23T04:28:26.672Z,6.40
2018-08-23T04:30:56.500Z,6.60
2018-08-23T04:33:26.780Z,7.90
2018-08-23T04:35:57.285Z,6.77
2018-08-23T04:38:27.656Z,6.67
2018-08-23T04:41:00.491Z,5.90
2018-08-23T04:43:30.900Z,6.20
2018-08-23T04:46:03.982Z,6.90
2018-08-23T04:48:33.671Z,6.40
2018-08-23T04:51:03.964Z,6.13
2018-08-23T04:53:34.432Z,6.30
2018-08-23T04:56:04.745Z,6.10
2018-08-23T04:58:35.214Z,6.07
2018-08-23T05:01:05.745Z,6.50
2018-08-23T05:03:36.170Z,6.07
2018-08-23T05:06:06.573Z,6.10
2018-08-23T05:08:37.019Z,6.30
2018-08-23T05:11:07.509Z,6.03
2018-08-23T05:13:38.052Z,5.63
2018-08-23T05:16:07.789Z,6.20
2018-08-23T05:18:38.321Z,6.30
2018-08-23T05:21:08.817Z,6.20
2018-08-23T05:23:38.575Z,6.53
2018-08-23T05:26:15.425Z,6.07
2018-08-23T05:29:01.181Z,7.13
2018-08-23T05:31:32.813Z,6.77
2018-08-23T05:34:05.601Z,7.07
2018-08-23T05:36:36.096Z,6.47
2018-08-23T05:39:09.403Z,7.17
2018-08-23T05:41:39.833Z,6.97
2018-08-23T05:44:19.040Z,7.00
2018-08-23T05:46:53.047Z,6.63
2018-08-23T05:49:23.709Z,7.00
2018-08-23T05:51:57.560Z,7.10
2018-08-23T05:54:27.468Z,7.43
2018-08-23T05:56:57.777Z,6.90
2018-08-23T05:59:28.381Z,7.17
2018-08-23T06:01:58.897Z,8.20
2018-08-23T06:04:48.046Z,7.97
2018-08-23T06:07:18.389Z,7.13
2018-08-23T06:09:48.772Z,7.03
2018-08-23T06:12:18.492Z,7.57
2018-08-23T06:14:49.000Z,7.13
2018-08-23T06:17:18.737Z,7.23
2018-08-23T06:19:49.076Z,7.13
2018-08-23T06:22:19.432Z,6.73
2018-08-23T06:24:49.964Z,6.83
2018-08-23T06:27:20.505Z,7.37
2018-08-23T06:29:51.084Z,6.70
2018-08-23T06:32:21.463Z,7.50
2018-08-23T06:34:52.804Z,6.80
2018-08-23T06:37:23.592Z,7.20
2018-08-23T06:39:54.343Z,7.13
2018-08-23T06:42:39.395Z,7.10
2018-08-23T06:45:09.893Z,6.63
2018-08-23T06:47:44.352Z,6.77
2018-08-23T06:50:14.716Z,6.47
2018-08-23T06:52:50.126Z,7.00
2018-08-23T06:55:25.493Z,7.00
2018-08-23T06:58:00.125Z,7.27
2018-08-23T07:00:30.627Z,6.50
2018-08-23T07:03:01.241Z,6.50
2018-08-23T07:05:31.635Z,7.07
2018-08-23T07:08:02.141Z,7.10
2018-08-23T07:10:32.688Z,7.17
2018-08-23T07:13:02.412Z,6.60
2018-08-23T07:15:32.729Z,6.63
2018-08-23T07:18:03.061Z,6.60
2018-08-23T07:20:33.294Z,6.97
2018-08-23T07:23:04.017Z,6.93
2018-08-23T07:25:38.658Z,6.80
2018-08-23T07:28:09.264Z,6.93
2018-08-23T07:30:39.684Z,6.83
2018-08-23T07:33:09.535Z,6.50
2018-08-23T07:35:40.055Z,6.90
2018-08-23T07:38:10.437Z,7.03
2018-08-23T07:40:41.112Z,7.53
2018-08-23T07:43:11.524Z,6.53
2018-08-23T07:45:42.008Z,6.80
2018-08-23T07:48:12.453Z,6.57
2018-08-23T07:50:43.227Z,6.37
2018-08-23T07:53:13.661Z,6.60
2018-08-23T07:55:44.182Z,6.67
2018-08-23T07:58:14.864Z,6.70
2018-08-23T08:00:45.340Z,6.50
2018-08-23T08:03:16.156Z,6.40
2018-08-23T08:05:46.412Z,6.17
2018-08-23T08:08:16.772Z,6.73
2018-08-23T08:10:47.324Z,6.43
2018-08-23T08:13:17.052Z,6.63
2018-08-23T08:15:47.481Z,6.40
2018-08-23T08:18:24.169Z,6.23
2018-08-23T08:21:04.698Z,6.17
2018-08-23T08:23:34.539Z,6.67
2018-08-23T08:26:05.488Z,6.47
2018-08-23T08:28:36.185Z,6.50
2018-08-23T08:31:05.992Z,6.07
2018-08-23T08:33:36.892Z,5.97
2018-08-23T08:36:07.776Z,6.47
2018-08-23T08:38:38.232Z,6.20
2018-08-23T08:41:08.626Z,6.03
2018-08-23T08:43:38.432Z,6.23
2018-08-23T08:46:08.862Z,6.23
2018-08-23T08:48:38.596Z,5.90
2018-08-23T08:51:21.917Z,6.57
2018-08-23T08:53:53.233Z,6.30
2018-08-23T08:56:27.309Z,6.17
2018-08-23T08:58:57.741Z,6.33
2018-08-23T09:01:28.344Z,6.00
2018-08-23T09:03:58.944Z,5.83
2018-08-23T09:06:33.599Z,5.60
2018-08-23T09:09:14.060Z,5.90
2018-08-23T09:11:44.591Z,6.00
2018-08-23T09:14:14.936Z,5.62
2018-08-23T09:16:45.803Z,6.03
2018-08-23T09:19:16.357Z,6.40
2018-08-23T09:21:52.439Z,6.20
2018-08-23T09:24:28.860Z,6.12
2018-08-23T09:26:59.409Z,6.05
2018-08-23T09:29:34.264Z,5.78
2018-08-23T09:32:27.427Z,6.30
2018-08-23T09:35:00.068Z,5.80
2018-08-23T09:37:35.247Z,5.58
2018-08-23T09:40:06.093Z,6.00
2018-08-23T09:42:37.302Z,5.83
2018-08-23T09:45:17.170Z,5.60
2018-08-23T09:47:47.595Z,5.85
2018-08-23T09:50:18.028Z,5.22
2018-08-23T09:52:49.730Z,5.50
2018-08-23T09:55:21.321Z,5.40
2018-08-23T09:57:51.761Z,5.62
2018-08-23T10:00:30.172Z,5.28
2018-08-23T10:03:05.803Z,4.95
2018-08-23T10:05:47.720Z,4.75
2018-08-23T10:08:23.511Z,5.03
2018-08-23T10:10:58.776Z,5.30
2018-08-23T10:13:34.322Z,5.80
2018-08-23T10:16:09.636Z,5.47
2018-08-23T10:18:45.120Z,4.83
2018-08-23T10:21:16.752Z,5.25
2018-08-23T10:23:47.354Z,5.10
2018-08-23T10:26:30.106Z,5.83
2018-08-23T10:29:00.944Z,5.20
2018-08-23T10:31:30.549Z,5.20
2018-08-23T10:34:04.079Z,5.20
2018-08-23T10:36:35.224Z,4.67
2018-08-23T10:39:07.867Z,5.45
2018-08-23T10:41:37.613Z,5.40
2018-08-23T10:49:52.937Z,4.70
2018-08-23T10:52:23.324Z,4.95
2018-08-23T10:54:53.061Z,4.90
2018-08-23T10:57:23.359Z,4.50
2018-08-23T10:59:53.672Z,4.75
2018-08-23T11:02:23.433Z,6.05
2018-08-23T11:04:53.744Z,6.40
2018-08-23T11:07:28.267Z,6.42
2018-08-23T11:10:03.712Z,5.85
2018-08-23T11:12:39.299Z,5.12
2018-08-23T11:15:15.007Z,5.30
2018-08-23T11:17:50.457Z,4.87
2018-08-23T11:20:25.908Z,5.28
2018-08-23T11:22:56.363Z,5.58
2018-08-23T11:25:27.239Z,4.78
2018-08-23T11:27:57.836Z,5.30
2018-08-23T11:30:28.319Z,5.22
2018-08-23T11:32:58.808Z,5.20
2018-08-23T11:35:29.273Z,5.15
2018-08-23T11:37:59.652Z,5.67
2018-08-23T11:40:30.013Z,5.05
2018-08-23T11:43:00.824Z,4.62
2018-08-23T11:45:30.669Z,4.90
2018-08-23T11:48:00.965Z,5.25
2018-08-23T11:50:30.805Z,5.92
2018-08-23T11:53:01.202Z,5.22
2018-08-23T11:55:32.070Z,6.62
2018-08-23T11:58:02.712Z,5.05
2018-08-23T12:00:33.188Z,4.72
2018-08-23T12:03:03.724Z,4.87
2018-08-23T12:05:33.519Z,5.03
2018-08-23T12:08:03.111Z,5.08
2018-08-23T12:10:33.392Z,5.42
2018-08-23T12:13:03.739Z,5.60
2018-08-23T12:15:34.407Z,5.28
2018-08-23T12:18:05.056Z,5.50
2018-08-23T12:20:34.897Z,5.70
2018-08-23T12:23:05.421Z,5.40
2018-08-23T12:25:35.827Z,5.00
2018-08-23T12:28:11.340Z,5.45
2018-08-23T12:30:42.676Z,5.12
2018-08-23T12:33:13.040Z,5.30
2018-08-23T12:35:43.636Z,5.20
2018-08-23T12:38:20.809Z,5.45
2018-08-23T12:40:56.674Z,5.30
2018-08-23T12:43:32.296Z,5.28
2018-08-23T12:46:04.013Z,5.10
2018-08-23T12:48:34.940Z,5.25
2018-08-23T12:51:04.824Z,5.97
2018-08-23T12:53:35.718Z,5.45
2018-08-23T12:56:06.369Z,5.72
2018-08-23T12:58:38.028Z,5.37
2018-08-23T13:01:12.899Z,5.20
2018-08-23T13:03:44.326Z,5.50
2018-08-23T13:06:15.194Z,5.17
2018-08-23T13:08:45.782Z,5.47
2018-08-23T13:11:16.131Z,5.47
2018-08-23T13:13:46.659Z,5.80
2018-08-23T13:16:17.079Z,5.65
2018-08-23T13:18:47.516Z,5.37
2018-08-23T13:21:17.995Z,5.45
2018-08-23T13:23:48.243Z,5.70
2018-08-23T13:26:18.852Z,5.95
2018-08-23T13:28:49.449Z,5.80
2018-08-23T13:31:19.231Z,5.95
2018-08-23T13:33:49.663Z,5.95
2018-08-23T13:36:20.249Z,5.92
2018-08-23T13:38:50.781Z,5.85
2018-08-23T13:41:21.433Z,5.53
2018-08-23T13:43:51.763Z,5.90
2018-08-23T13:46:22.512Z,6.08
2018-08-23T13:48:52.998Z,5.70
2018-08-23T13:51:23.517Z,5.70
2018-08-23T13:53:53.802Z,6.10
2018-08-23T13:56:23.960Z,6.33
2018-08-23T13:58:55.613Z,6.17
2018-08-23T14:01:29.703Z,6.00
2018-08-23T14:03:59.412Z,5.90
2018-08-23T14:06:29.721Z,6.22
2018-08-23T14:09:00.152Z,5.85
2018-08-23T14:11:30.488Z,6.37
2018-08-23T14:14:01.056Z,6.33
2018-08-23T14:16:31.419Z,6.20
2018-08-23T14:19:01.844Z,6.62
2018-08-23T14:21:32.323Z,6.45
2018-08-23T14:24:02.900Z,5.97
2018-08-23T14:26:33.694Z,6.15
2018-08-23T14:29:04.092Z,6.12
2018-08-23T14:31:33.904Z,6.70
2018-08-23T14:34:04.099Z,6.08
2018-08-23T14:36:34.581Z,5.78
2018-08-23T14:39:07.107Z,5.83
2018-08-23T14:41:37.952Z,6.30
2018-08-23T14:44:08.625Z,6.10
2018-08-23T14:46:44.079Z,6.12
2018-08-23T14:49:45.112Z,8.83
2018-08-23T14:52:15.503Z,7.47
2018-08-23T14:54:45.317Z,6.55
2018-08-23T14:57:20.564Z,7.00
2018-08-23T14:59:50.252Z,6.65
2018-08-23T15:02:19.971Z,6.62
2018-08-23T15:04:50.403Z,6.50
2018-08-23T15:07:20.112Z,6.65
2018-08-23T15:09:50.508Z,6.78
2018-08-23T15:12:20.990Z,6.03
2018-08-23T15:14:51.394Z,6.60
2018-08-23T15:17:21.812Z,6.65
2018-08-23T15:19:51.520Z,6.75
2018-08-23T15:22:21.267Z,6.35
2018-08-23T15:24:51.764Z,6.62
2018-08-23T15:27:22.157Z,6.78
2018-08-23T15:29:52.496Z,7.35
2018-08-23T15:32:22.920Z,6.83
2018-08-23T15:34:53.311Z,6.60
2018-08-23T15:37:23.891Z,6.70
2018-08-23T15:39:53.738Z,6.25
2018-08-23T15:42:24.227Z,6.15
2018-08-23T15:44:54.565Z,6.28
2018-08-23T15:47:25.271Z,6.22
2018-08-23T15:49:55.708Z,6.55
2018-08-23T15:52:25.447Z,6.40
2018-08-23T15:54:56.005Z,6.25
2018-08-23T15:57:26.480Z,6.72
2018-08-23T15:59:56.993Z,6.50
2018-08-23T16:02:27.548Z,6.30
2018-08-23T16:04:57.339Z,7.22
2018-08-23T16:07:27.773Z,6.40
2018-08-23T16:09:57.578Z,6.03
2018-08-23T16:12:27.916Z,6.37
2018-08-23T16:14:58.741Z,6.40
2018-08-23T16:17:33.718Z,6.25
2018-08-23T16:20:09.080Z,6.55
2018-08-23T16:22:39.612Z,6.50
2018-08-23T16:25:10.368Z,6.87
2018-08-23T16:27:40.868Z,6.97
2018-08-23T16:30:11.277Z,7.60
2018-08-23T16:32:41.959Z,7.05
2018-08-23T16:35:12.505Z,6.80
2018-08-23T16:37:42.239Z,6.83
2018-08-23T16:40:16.772Z,7.42
2018-08-23T16:42:47.216Z,6.87
2018-08-23T16:45:17.616Z,6.92
2018-08-23T16:47:48.045Z,8.63
2018-08-23T16:50:18.561Z,7.78
2018-08-23T16:52:49.053Z,7.60
2018-08-23T16:55:19.944Z,7.85
2018-08-23T16:58:43.290Z,8.25
2018-08-23T17:01:13.660Z,10.72
2018-08-23T17:03:47.348Z,7.80
2018-08-23T17:06:17.818Z,7.47
2018-08-23T17:08:48.423Z,7.03
2018-08-23T17:11:18.925Z,6.87
2018-08-23T17:13:49.351Z,6.87
2018-08-23T17:16:24.796Z,6.45
2018-08-23T17:18:55.396Z,6.50
2018-08-23T17:21:25.192Z,6.35
2018-08-23T17:23:55.536Z,10.63
2018-08-23T17:26:25.862Z,6.70
2018-08-23T17:28:56.689Z,6.70
2018-08-23T17:31:26.383Z,6.62
2018-08-23T17:33:56.828Z,6.90
2018-08-23T17:36:26.728Z,7.37
2018-08-23T17:38:56.380Z,7.72
2018-08-23T17:41:26.692Z,9.10
2018-08-23T17:43:57.101Z,8.93
2018-08-23T17:46:26.828Z,10.32
2018-08-23T17:48:57.236Z,12.47
2018-08-23T17:51:26.975Z,9.90
2018-08-23T17:53:57.484Z,10.30
2018-08-23T17:56:27.933Z,9.13
2018-08-23T17:58:59.485Z,8.47
2018-08-23T18:01:29.737Z,7.40
2018-08-23T18:04:00.360Z,7.53
2018-08-23T18:06:30.741Z,7.73
2018-08-23T18:09:01.505Z,7.70
2018-08-23T18:11:32.079Z,8.33
2018-08-23T18:14:02.701Z,7.70
2018-08-23T18:16:38.047Z,10.87
2018-08-23T18:19:08.532Z,7.90
2018-08-23T18:21:39.808Z,7.73
2018-08-23T18:24:10.232Z,7.33
2018-08-23T18:26:40.660Z,8.00
2018-08-23T18:29:11.141Z,8.30
2018-08-23T18:31:41.589Z,9.80
2018-08-23T18:34:12.149Z,9.17
2018-08-23T18:36:43.662Z,9.10
2018-08-23T18:39:14.297Z,7.33
2018-08-23T18:41:45.004Z,7.50
2018-08-23T18:44:15.707Z,7.63
2018-08-23T18:46:46.169Z,7.40
2018-08-23T18:49:16.616Z,7.70
2018-08-23T18:51:47.196Z,7.23
2018-08-23T18:54:19.024Z,7.10
2018-08-23T18:56:49.510Z,7.60
2018-08-23T18:59:20.069Z,7.27
2018-08-23T19:01:50.640Z,7.57
2018-08-23T19:04:21.192Z,9.07
2018-08-23T19:06:51.237Z,7.67
2018-08-23T19:09:21.625Z,7.60
2018-08-23T19:11:51.369Z,9.33
2018-08-23T19:14:21.801Z,8.80
2018-08-23T19:16:57.176Z,8.20
2018-08-23T19:19:27.835Z,7.63
2018-08-23T19:21:58.273Z,6.90
2018-08-23T19:24:28.063Z,6.60
2018-08-23T19:26:57.687Z,6.43
2018-08-23T19:29:28.152Z,7.10
2018-08-23T19:31:58.720Z,6.67
2018-08-23T19:34:29.211Z,7.23
2018-08-23T19:36:59.719Z,7.17
2018-08-23T19:39:30.676Z,7.50
2018-08-23T19:42:01.272Z,7.33
2018-08-23T19:44:31.167Z,7.20
2018-08-23T19:47:06.424Z,7.60
2018-08-23T19:49:41.610Z,7.83
2018-08-23T19:52:12.225Z,7.73
2018-08-23T19:54:42.924Z,8.33
2018-08-23T19:57:13.471Z,8.47
2018-08-23T19:59:44.053Z,7.93
2018-08-23T20:02:14.604Z,8.70
2018-08-23T20:04:44.563Z,24.73
2018-08-23T20:07:15.564Z,12.17
2018-08-23T20:09:45.488Z,17.43
2018-08-23T20:12:16.297Z,8.33
2018-08-23T20:14:46.748Z,8.73
2018-08-23T20:17:16.499Z,8.90
2018-08-23T20:19:46.929Z,8.60
2018-08-23T20:22:17.392Z,9.03
2018-08-23T20:24:48.369Z,8.50
2018-08-23T20:27:18.835Z,8.27
2018-08-23T20:29:49.580Z,9.00
2018-08-23T20:32:20.557Z,9.23
2018-08-23T20:34:50.976Z,9.27
2018-08-23T20:37:20.715Z,9.37
2018-08-23T20:39:51.041Z,9.40
2018-08-23T20:42:21.337Z,9.63
2018-08-23T20:44:51.071Z,10.10
2018-08-23T20:47:21.456Z,10.37
2018-08-23T20:49:51.195Z,9.83
2018-08-23T20:52:21.492Z,10.53
2018-08-23T20:54:51.954Z,10.63
2018-08-23T20:57:22.367Z,9.90
2018-08-23T20:59:52.664Z,9.80
2018-08-23T21:02:23.103Z,11.70
2018-08-23T21:04:52.949Z,12.20
2018-08-23T21:07:23.172Z,11.47
2018-08-23T21:09:53.854Z,13.90
2018-08-23T21:12:25.251Z,15.10
2018-08-23T21:14:55.797Z,13.77
2018-08-23T21:17:26.217Z,13.23
2018-08-23T21:19:56.641Z,11.80
2018-08-23T21:22:27.003Z,8.70
2018-08-23T21:24:57.493Z,10.70
2018-08-23T21:27:27.832Z,10.33
2018-08-23T21:29:58.408Z,11.40
2018-08-23T21:32:28.207Z,11.23
2018-08-23T21:34:58.690Z,11.50
2018-08-23T21:37:29.117Z,11.33
2018-08-23T21:39:59.661Z,11.73
2018-08-23T21:42:30.647Z,11.50
2018-08-23T21:45:00.591Z,11.60
2018-08-23T21:47:30.812Z,10.80
2018-08-23T21:50:01.304Z,11.83
2018-08-23T21:52:31.608Z,10.53
2018-08-23T21:55:02.057Z,10.00
2018-08-23T21:57:32.995Z,9.83
2018-08-23T22:00:02.758Z,9.67
2018-08-23T22:02:33.029Z,9.60
2018-08-23T22:05:02.872Z,9.40
2018-08-23T22:07:33.372Z,9.53
2018-08-23T22:10:03.337Z,9.43
2018-08-23T22:12:33.560Z,9.50
2018-08-23T22:15:04.135Z,9.53
2018-08-23T22:17:34.668Z,9.50
2018-08-23T22:20:04.407Z,9.57
2018-08-23T22:22:35.084Z,9.47
2018-08-23T22:25:05.692Z,10.63
2018-08-23T22:27:36.068Z,10.40
2018-08-23T22:30:06.317Z,10.63
2018-08-23T22:32:36.920Z,9.80
2018-08-23T22:35:06.728Z,10.03
2018-08-23T22:37:37.078Z,9.50
2018-08-23T22:40:08.001Z,10.03
2018-08-23T22:42:38.368Z,10.77
2018-08-23T22:45:08.976Z,9.53
2018-08-23T22:47:39.609Z,9.97
2018-08-23T22:50:10.238Z,10.07
2018-08-23T22:52:40.773Z,11.17
2018-08-23T22:55:11.155Z,10.40
2018-08-23T22:57:41.572Z,10.20
2018-08-23T23:00:12.149Z,10.60
2018-08-23T23:02:42.647Z,10.37
2018-08-23T23:05:13.034Z,10.57
2018-08-23T23:07:43.593Z,10.77
2018-08-23T23:10:14.044Z,10.40
2018-08-23T23:12:44.565Z,10.37
2018-08-23T23:15:20.341Z,9.80
2018-08-23T23:17:50.943Z,10.17
2018-08-23T23:20:20.734Z,10.53
2018-08-23T23:22:51.184Z,10.63
2018-08-23T23:25:20.951Z,10.17
2018-08-23T23:27:51.416Z,9.20
2018-08-23T23:30:21.565Z,10.20
2018-08-23T23:32:52.378Z,9.70
2018-08-23T23:35:22.179Z,9.57
2018-08-23T23:37:52.589Z,10.00
2018-08-23T23:40:23.061Z,9.93
2018-08-23T23:42:53.568Z,10.20
2018-08-23T23:45:23.305Z,9.00
2018-08-23T23:47:53.569Z,9.80
2018-08-23T23:50:24.127Z,10.37
2018-08-23T23:52:53.851Z,10.87
2018-08-23T23:55:24.121Z,10.53
2018-08-23T23:57:54.592Z,11.03
